createdAt,value
2023-03-16T00:12:31.228Z,70.2
2023-03-16T00:17:31.233Z,70.2
2023-03-16T00:22:31.195Z,67.8
2023-03-16T00:32:31.246Z,72.8
2023-03-16T00:37:31.250Z,67.9
2023-03-16T00:47:31.217Z,70.4
2023-03-16T00:52:31.195Z,69.8
2023-03-16T00:57:31.216Z,68.6
2023-03-16T01:02:31.237Z,69.9
2023-03-16T01:27:31.219Z,71.4
2023-03-16T01:32:31.253Z,70.7
2023-03-16T01:37:31.202Z,73.3
2023-03-16T01:47:31.254Z,70.3
2023-03-16T01:52:31.207Z,70.0
2023-03-16T01:57:31.208Z,73.3
2023-03-16T02:02:31.262Z,71.3
2023-03-16T02:27:31.233Z,72.3
2023-03-16T02:32:31.265Z,71.8
2023-03-16T02:37:31.224Z,72.8
2023-03-16T02:42:31.229Z,72.3
2023-03-16T02:47:31.257Z,72.8
2023-03-16T02:52:31.239Z,72.1
2023-03-16T02:57:31.231Z,71.8
2023-03-16T03:17:31.259Z,72.5
2023-03-16T03:22:31.266Z,71.2
2023-03-16T03:32:31.342Z,70.9
2023-03-16T03:47:31.250Z,72.2
2023-03-16T03:57:31.258Z,72.8
2023-03-16T04:12:31.296Z,75.1
2023-03-16T04:17:31.248Z,76.1
2023-03-16T04:22:31.286Z,74.1
2023-03-16T04:27:31.310Z,76.0
2023-03-16T04:32:31.292Z,76.4
2023-03-16T04:37:31.267Z,76.5
2023-03-16T04:52:31.276Z,77.5
2023-03-16T04:57:31.283Z,74.9
2023-03-16T05:02:31.255Z,77.8
2023-03-16T05:17:31.269Z,75.7
2023-03-16T05:22:31.262Z,77.3
2023-03-16T05:27:31.284Z,75.6
2023-03-16T05:32:31.316Z,75.7
2023-03-16T05:37:31.309Z,77.8
2023-03-16T05:42:31.283Z,76.0
2023-03-16T05:47:31.289Z,75.3
2023-03-16T05:52:31.289Z,75.0
2023-03-16T05:57:31.301Z,76.2
2023-03-16T06:02:31.297Z,76.4
2023-03-16T06:17:31.289Z,76.3
2023-03-16T06:22:31.288Z,75.3
2023-03-16T06:27:31.303Z,77.0
2023-03-16T06:32:31.351Z,75.6
2023-03-16T06:42:31.321Z,76.6
2023-03-16T06:47:31.291Z,76.9
2023-03-16T06:57:31.320Z,76.2
2023-03-16T07:02:31.279Z,75.7
2023-03-16T07:07:31.282Z,75.5
2023-03-16T07:12:31.309Z,78.3
2023-03-16T07:17:31.304Z,80.3
2023-03-16T07:22:31.310Z,80.6
2023-03-16T07:27:31.313Z,81.6
2023-03-16T07:32:31.356Z,82.0
2023-03-16T07:37:31.307Z,81.7
2023-03-16T07:47:31.361Z,81.9
2023-03-16T07:57:31.332Z,83.9
2023-03-16T08:12:31.409Z,85.6
2023-03-16T08:17:31.320Z,85.3
2023-03-16T08:22:31.295Z,85.4
2023-03-16T08:27:31.303Z,85.3
2023-03-16T08:32:31.355Z,85.1
2023-03-16T08:37:31.340Z,84.7
2023-03-16T08:42:31.361Z,84.9
2023-03-16T08:47:31.345Z,84.0
2023-03-16T08:52:31.296Z,82.8
2023-03-16T08:57:31.351Z,83.0
2023-03-16T09:02:31.339Z,84.0
2023-03-16T09:07:31.354Z,83.3
2023-03-16T09:12:31.325Z,83.3
2023-03-16T09:17:31.330Z,82.7
2023-03-16T09:27:31.325Z,82.8
2023-03-16T09:32:31.380Z,82.5
2023-03-16T09:37:44.481Z,81.5
2023-03-16T09:42:31.345Z,81.0
2023-03-16T09:47:31.334Z,80.2
2023-03-16T10:07:31.359Z,80.3
2023-03-16T10:12:31.329Z,79.1
2023-03-16T10:17:31.335Z,79.4
2023-03-16T10:22:31.346Z,79.2
2023-03-16T10:27:31.321Z,77.2
2023-03-16T10:32:31.410Z,77.2
2023-03-16T10:37:31.344Z,74.7
2023-03-16T10:42:31.336Z,69.1
2023-03-16T10:52:31.371Z,66.5
2023-03-16T10:57:31.337Z,68.4
2023-03-16T11:02:31.361Z,66.7
2023-03-16T11:07:31.370Z,66.8
2023-03-16T11:17:31.335Z,60.1
2023-03-16T11:22:31.400Z,59.6
2023-03-16T11:27:31.380Z,59.1
2023-03-16T11:32:31.366Z,56.3
2023-03-16T11:37:31.367Z,57.3
2023-03-16T11:42:31.363Z,58.9
2023-03-16T11:47:31.373Z,59.1
2023-03-16T11:52:31.367Z,59.2
2023-03-16T11:57:31.353Z,57.8
2023-03-16T12:02:31.453Z,59.5
2023-03-16T12:07:31.398Z,59.9
2023-03-16T12:12:31.362Z,60.7
2023-03-16T12:17:31.369Z,60.2
2023-03-16T12:27:31.394Z,58.4
2023-03-16T12:32:31.399Z,57.7
2023-03-16T12:37:31.377Z,55.4
2023-03-16T12:42:31.362Z,55.2
2023-03-16T12:47:31.407Z,53.7
2023-03-16T12:52:31.379Z,52.9
2023-03-16T12:57:31.370Z,51.7
2023-03-16T13:02:31.388Z,51.5
2023-03-16T13:07:31.386Z,52.2
2023-03-16T13:12:31.381Z,54.1
2023-03-16T13:17:31.456Z,53.6
2023-03-16T13:22:31.403Z,52.3
2023-03-16T13:27:31.405Z,52.6
2023-03-16T13:32:31.464Z,52.4
2023-03-16T13:37:31.412Z,52.0
2023-03-16T13:47:31.401Z,51.5
2023-03-16T13:52:31.457Z,49.8
2023-03-16T13:57:31.396Z,49.8
2023-03-16T14:02:31.433Z,50.5
2023-03-16T14:07:31.407Z,48.6
2023-03-16T14:12:32.644Z,51.9
2023-03-16T14:17:31.402Z,51.9
2023-03-16T14:22:31.418Z,52.6
2023-03-16T14:27:31.422Z,52.1
2023-03-16T14:32:31.421Z,52.4
2023-03-16T14:37:31.404Z,51.6
2023-03-16T14:42:31.399Z,51.1
2023-03-16T14:47:31.411Z,51.4
2023-03-16T14:52:31.427Z,51.0
2023-03-16T14:57:31.429Z,48.0
2023-03-16T15:02:31.451Z,49.0
2023-03-16T15:07:31.458Z,48.8
2023-03-16T15:12:31.436Z,47.6
2023-03-16T15:17:31.411Z,47.1
2023-03-16T15:22:31.439Z,44.0
2023-03-16T15:27:31.463Z,44.3
2023-03-16T15:32:31.461Z,43.0
2023-03-16T15:37:31.465Z,44.2
2023-03-16T15:42:31.416Z,46.3
2023-03-16T15:47:31.417Z,46.2
2023-03-16T15:52:31.433Z,43.4
2023-03-16T15:57:31.418Z,45.0
2023-03-16T16:02:31.436Z,46.2
2023-03-16T16:07:31.458Z,42.4
2023-03-16T16:12:31.454Z,45.4
2023-03-16T16:17:47.974Z,49.3
2023-03-16T16:22:31.429Z,53.2
2023-03-16T16:27:31.491Z,53.6
2023-03-16T16:32:31.454Z,52.6
2023-03-16T16:42:31.470Z,53.3
2023-03-16T16:52:31.440Z,55.3
2023-03-16T16:57:31.452Z,53.7
2023-03-16T17:02:31.459Z,56.5
2023-03-16T17:07:31.471Z,58.1
2023-03-16T17:12:31.478Z,58.9
2023-03-16T17:17:31.449Z,58.7
2023-03-16T17:22:31.435Z,60.1
2023-03-16T17:27:31.472Z,61.5
2023-03-16T17:32:31.532Z,60.0
2023-03-16T17:42:31.494Z,59.4
2023-03-16T17:52:31.492Z,61.8
2023-03-16T18:02:31.509Z,59.5
2023-03-16T18:12:31.497Z,60.7
2023-03-16T18:17:32.797Z,63.0
2023-03-16T18:22:31.480Z,63.0
2023-03-16T18:32:31.531Z,63.6
2023-03-16T18:37:31.487Z,63.8
2023-03-16T18:47:31.543Z,64.8
2023-03-16T18:52:31.470Z,64.3
2023-03-16T19:12:31.486Z,64.2
2023-03-16T19:22:31.496Z,63.8
2023-03-16T19:32:31.552Z,66.7
2023-03-16T19:37:31.506Z,67.1
2023-03-16T19:47:31.540Z,67.0
2023-03-16T19:52:31.515Z,65.2
2023-03-16T20:07:31.542Z,67.4
2023-03-16T20:12:31.497Z,67.3
2023-03-16T20:17:31.509Z,67.1
2023-03-16T20:27:31.514Z,69.2
2023-03-16T20:32:31.562Z,67.9
2023-03-16T20:42:31.514Z,66.5
2023-03-16T20:47:31.522Z,66.4
2023-03-16T20:57:31.517Z,66.8
2023-03-16T21:07:31.563Z,68.3
2023-03-16T21:17:31.525Z,68.5
2023-03-16T21:22:31.570Z,69.3
2023-03-16T21:27:31.565Z,69.3
2023-03-16T21:42:31.532Z,69.6
2023-03-16T21:52:31.548Z,69.9
2023-03-16T21:57:32.705Z,71.0
2023-03-16T22:12:31.567Z,70.8
2023-03-16T22:22:31.534Z,70.1
2023-03-16T22:32:31.620Z,73.1
2023-03-16T22:57:31.607Z,70.5
2023-03-16T23:02:31.581Z,69.1
2023-03-16T23:07:31.548Z,69.8
2023-03-16T23:12:31.538Z,69.7
2023-03-16T23:17:31.573Z,68.5
2023-03-16T23:22:31.554Z,70.5
2023-03-16T23:37:31.570Z,70.4
2023-03-16T23:42:31.585Z,65.7
2023-03-16T23:47:31.585Z,65.3
2023-03-16T23:57:31.585Z,66.1
